sensor_id;sensor_type;location;lat;lon;timestamp;P1;durP1;ratioP1;P2;durP2;ratioP2
65234;SDS011;51820;48.374;10.930;2023-03-01T00:01:22;21.05;;;8.60;;
65234;SDS011;51820;48.374;10.930;2023-03-01T00:03:51;20.83;;;9.32;;
65234;SDS011;51820;48.374;10.930;2023-03-01T00:06:24;21.60;;;9.25;;
65234;SDS011;51820;48.374;10.930;2023-03-01T00:08:52;19.90;;;9.45;;
65234;SDS011;51820;48.374;10.930;2023-03-01T00:11:21;23.00;;;9.63;;
65234;SDS011;51820;48.374;10.930;2023-03-01T00:13:52;21.52;;;9.27;;
65234;SDS011;51820;48.374;10.930;2023-03-01T00:16:22;20.38;;;9.60;;
65234;SDS011;51820;48.374;10.930;2023-03-01T00:18:53;21.20;;;10.13;;
65234;SDS011;51820;48.374;10.930;2023-03-01T00:21:21;20.58;;;9.25;;
65234;SDS011;51820;48.374;10.930;2023-03-01T00:23:51;22.43;;;9.30;;
65234;SDS011;51820;48.374;10.930;2023-03-01T00:26:20;21.65;;;9.50;;
65234;SDS011;51820;48.374;10.930;2023-03-01T00:28:49;20.88;;;9.30;;
65234;SDS011;51820;48.374;10.930;2023-03-01T00:31:19;21.30;;;9.82;;
65234;SDS011;51820;48.374;10.930;2023-03-01T00:33:48;21.95;;;9.45;;
65234;SDS011;51820;48.374;10.930;2023-03-01T00:36:16;21.00;;;8.10;;
65234;SDS011;51820;48.374;10.930;2023-03-01T00:38:45;24.00;;;9.18;;
65234;SDS011;51820;48.374;10.930;2023-03-01T00:41:16;21.00;;;9.65;;
65234;SDS011;51820;48.374;10.930;2023-03-01T00:43:44;20.58;;;8.98;;
65234;SDS011;51820;48.374;10.930;2023-03-01T00:46:14;19.40;;;8.80;;
65234;SDS011;51820;48.374;10.930;2023-03-01T00:48:46;18.57;;;8.77;;
65234;SDS011;51820;48.374;10.930;2023-03-01T00:51:15;29.27;;;9.88;;
65234;SDS011;51820;48.374;10.930;2023-03-01T00:53:45;21.70;;;9.55;;
65234;SDS011;51820;48.374;10.930;2023-03-01T00:56:16;20.90;;;9.82;;
65234;SDS011;51820;48.374;10.930;2023-03-01T00:58:44;19.88;;;9.40;;
65234;SDS011;51820;48.374;10.930;2023-03-01T01:01:13;20.57;;;9.53;;
65234;SDS011;51820;48.374;10.930;2023-03-01T01:03:48;19.55;;;9.32;;
65234;SDS011;51820;48.374;10.930;2023-03-01T01:06:18;23.60;;;10.70;;
65234;SDS011;51820;48.374;10.930;2023-03-01T01:08:49;21.58;;;10.15;;
65234;SDS011;51820;48.374;10.930;2023-03-01T01:11:19;23.95;;;9.60;;
65234;SDS011;51820;48.374;10.930;2023-03-01T01:13:48;21.20;;;9.97;;
65234;SDS011;51820;48.374;10.930;2023-03-01T01:16:17;21.50;;;9.52;;
65234;SDS011;51820;48.374;10.930;2023-03-01T01:18:46;20.17;;;9.88;;
65234;SDS011;51820;48.374;10.930;2023-03-01T01:21:16;21.55;;;9.43;;
65234;SDS011;51820;48.374;10.930;2023-03-01T01:23:46;21.50;;;10.02;;
65234;SDS011;51820;48.374;10.930;2023-03-01T01:26:15;22.00;;;9.77;;
65234;SDS011;51820;48.374;10.930;2023-03-01T01:28:46;20.40;;;9.20;;
65234;SDS011;51820;48.374;10.930;2023-03-01T01:31:15;20.52;;;9.13;;
65234;SDS011;51820;48.374;10.930;2023-03-01T01:33:43;22.65;;;9.32;;
65234;SDS011;51820;48.374;10.930;2023-03-01T01:36:12;20.15;;;9.63;;
65234;SDS011;51820;48.374;10.930;2023-03-01T01:38:40;19.73;;;9.07;;
65234;SDS011;51820;48.374;10.930;2023-03-01T01:41:10;19.80;;;9.23;;
65234;SDS011;51820;48.374;10.930;2023-03-01T01:43:40;24.50;;;9.75;;
65234;SDS011;51820;48.374;10.930;2023-03-01T01:46:15;20.40;;;9.10;;
65234;SDS011;51820;48.374;10.930;2023-03-01T01:48:50;22.45;;;9.50;;
65234;SDS011;51820;48.374;10.930;2023-03-01T01:51:25;23.30;;;9.23;;
65234;SDS011;51820;48.374;10.930;2023-03-01T01:53:56;21.50;;;9.32;;
65234;SDS011;51820;48.374;10.930;2023-03-01T01:56:27;20.35;;;9.27;;
65234;SDS011;51820;48.374;10.930;2023-03-01T01:58:57;19.98;;;9.57;;
65234;SDS011;51820;48.374;10.930;2023-03-01T02:01:27;20.52;;;9.18;;
65234;SDS011;51820;48.374;10.930;2023-03-01T02:03:55;19.70;;;8.83;;
65234;SDS011;51820;48.374;10.930;2023-03-01T02:06:26;20.65;;;9.48;;
65234;SDS011;51820;48.374;10.930;2023-03-01T02:08:59;21.08;;;9.80;;
65234;SDS011;51820;48.374;10.930;2023-03-01T02:11:29;26.02;;;9.98;;
65234;SDS011;51820;48.374;10.930;2023-03-01T02:13:59;24.52;;;10.60;;
65234;SDS011;51820;48.374;10.930;2023-03-01T02:16:29;21.73;;;10.03;;
65234;SDS011;51820;48.374;10.930;2023-03-01T02:18:59;20.48;;;9.68;;
65234;SDS011;51820;48.374;10.930;2023-03-01T02:21:34;21.55;;;9.77;;
65234;SDS011;51820;48.374;10.930;2023-03-01T02:24:12;21.98;;;9.15;;
65234;SDS011;51820;48.374;10.930;2023-03-01T02:26:50;21.63;;;9.95;;
65234;SDS011;51820;48.374;10.930;2023-03-01T02:29:23;21.57;;;9.50;;
65234;SDS011;51820;48.374;10.930;2023-03-01T02:31:52;20.25;;;8.85;;
65234;SDS011;51820;48.374;10.930;2023-03-01T02:34:25;23.30;;;10.02;;
65234;SDS011;51820;48.374;10.930;2023-03-01T02:36:56;20.23;;;9.68;;
65234;SDS011;51820;48.374;10.930;2023-03-01T02:39:29;25.52;;;9.80;;
65234;SDS011;51820;48.374;10.930;2023-03-01T02:42:01;21.20;;;9.87;;
65234;SDS011;51820;48.374;10.930;2023-03-01T02:44:33;21.83;;;9.82;;
65234;SDS011;51820;48.374;10.930;2023-03-01T02:47:01;21.45;;;9.90;;
65234;SDS011;51820;48.374;10.930;2023-03-01T02:49:33;24.75;;;9.75;;
65234;SDS011;51820;48.374;10.930;2023-03-01T02:52:23;22.95;;;10.13;;
65234;SDS011;51820;48.374;10.930;2023-03-01T02:54:58;20.13;;;9.37;;
65234;SDS011;51820;48.374;10.930;2023-03-01T02:57:35;19.83;;;8.98;;
65234;SDS011;51820;48.374;10.930;2023-03-01T03:00:08;21.95;;;10.15;;
65234;SDS011;51820;48.374;10.930;2023-03-01T03:02:46;22.90;;;10.43;;
65234;SDS011;51820;48.374;10.930;2023-03-01T03:05:18;21.55;;;9.27;;
65234;SDS011;51820;48.374;10.930;2023-03-01T03:07:51;21.40;;;9.93;;
65234;SDS011;51820;48.374;10.930;2023-03-01T03:10:21;22.23;;;9.85;;
65234;SDS011;51820;48.374;10.930;2023-03-01T03:12:51;22.13;;;9.93;;
65234;SDS011;51820;48.374;10.930;2023-03-01T03:15:23;24.35;;;10.27;;
65234;SDS011;51820;48.374;10.930;2023-03-01T03:17:52;23.75;;;10.13;;
65234;SDS011;51820;48.374;10.930;2023-03-01T03:20:21;21.00;;;9.37;;
65234;SDS011;51820;48.374;10.930;2023-03-01T03:22:52;23.40;;;10.25;;
65234;SDS011;51820;48.374;10.930;2023-03-01T03:25:22;22.73;;;10.10;;
65234;SDS011;51820;48.374;10.930;2023-03-01T03:27:51;21.55;;;9.73;;
65234;SDS011;51820;48.374;10.930;2023-03-01T03:30:25;25.02;;;9.55;;
65234;SDS011;51820;48.374;10.930;2023-03-01T03:32:54;21.47;;;9.60;;
65234;SDS011;51820;48.374;10.930;2023-03-01T03:35:23;23.52;;;10.48;;
65234;SDS011;51820;48.374;10.930;2023-03-01T03:37:55;26.85;;;9.68;;
65234;SDS011;51820;48.374;10.930;2023-03-01T03:40:32;18.60;;;9.43;;
65234;SDS011;51820;48.374;10.930;2023-03-01T03:43:02;21.83;;;9.55;;
65234;SDS011;51820;48.374;10.930;2023-03-01T03:45:34;22.90;;;9.97;;
65234;SDS011;51820;48.374;10.930;2023-03-01T03:48:02;19.92;;;9.30;;
65234;SDS011;51820;48.374;10.930;2023-03-01T03:50:32;22.10;;;9.50;;
65234;SDS011;51820;48.374;10.930;2023-03-01T03:53:01;23.17;;;10.40;;
65234;SDS011;51820;48.374;10.930;2023-03-01T03:55:30;22.35;;;9.68;;
65234;SDS011;51820;48.374;10.930;2023-03-01T03:58:00;23.10;;;10.07;;
65234;SDS011;51820;48.374;10.930;2023-03-01T04:00:35;20.55;;;9.45;;
65234;SDS011;51820;48.374;10.930;2023-03-01T04:03:04;23.17;;;10.13;;
65234;SDS011;51820;48.374;10.930;2023-03-01T04:05:33;21.40;;;10.25;;
65234;SDS011;51820;48.374;10.930;2023-03-01T04:08:01;21.80;;;9.80;;
65234;SDS011;51820;48.374;10.930;2023-03-01T04:10:34;20.90;;;9.50;;
65234;SDS011;51820;48.374;10.930;2023-03-01T04:13:04;21.42;;;9.30;;
65234;SDS011;51820;48.374;10.930;2023-03-01T04:15:35;23.95;;;9.95;;
65234;SDS011;51820;48.374;10.930;2023-03-01T04:18:03;21.42;;;9.02;;
65234;SDS011;51820;48.374;10.930;2023-03-01T04:20:33;20.52;;;9.68;;
65234;SDS011;51820;48.374;10.930;2023-03-01T04:23:03;23.13;;;10.20;;
65234;SDS011;51820;48.374;10.930;2023-03-01T04:25:39;24.13;;;9.77;;
65234;SDS011;51820;48.374;10.930;2023-03-01T04:28:09;19.27;;;10.25;;
65234;SDS011;51820;48.374;10.930;2023-03-01T04:30:39;20.85;;;10.05;;
65234;SDS011;51820;48.374;10.930;2023-03-01T04:33:08;20.33;;;9.23;;
65234;SDS011;51820;48.374;10.930;2023-03-01T04:35:37;23.17;;;10.40;;
65234;SDS011;51820;48.374;10.930;2023-03-01T04:38:06;22.63;;;10.25;;
65234;SDS011;51820;48.374;10.930;2023-03-01T04:40:35;22.85;;;10.35;;
65234;SDS011;51820;48.374;10.930;2023-03-01T04:43:03;19.98;;;9.80;;
65234;SDS011;51820;48.374;10.930;2023-03-01T04:45:32;22.42;;;9.55;;
65234;SDS011;51820;48.374;10.930;2023-03-01T04:48:03;24.43;;;10.00;;
65234;SDS011;51820;48.374;10.930;2023-03-01T04:50:32;20.98;;;9.48;;
65234;SDS011;51820;48.374;10.930;2023-03-01T04:53:00;25.85;;;10.70;;
65234;SDS011;51820;48.374;10.930;2023-03-01T04:55:28;22.38;;;10.23;;
65234;SDS011;51820;48.374;10.930;2023-03-01T04:57:57;20.85;;;9.95;;
65234;SDS011;51820;48.374;10.930;2023-03-01T05:00:26;22.63;;;10.30;;
65234;SDS011;51820;48.374;10.930;2023-03-01T05:02:56;23.50;;;9.30;;
65234;SDS011;51820;48.374;10.930;2023-03-01T05:05:29;22.52;;;9.85;;
65234;SDS011;51820;48.374;10.930;2023-03-01T05:07:59;22.15;;;9.90;;
65234;SDS011;51820;48.374;10.930;2023-03-01T05:10:30;23.42;;;9.80;;
65234;SDS011;51820;48.374;10.930;2023-03-01T05:12:59;22.17;;;9.93;;
65234;SDS011;51820;48.374;10.930;2023-03-01T05:15:28;21.90;;;9.27;;
65234;SDS011;51820;48.374;10.930;2023-03-01T05:17:58;20.95;;;10.02;;
65234;SDS011;51820;48.374;10.930;2023-03-01T05:20:29;23.63;;;10.80;;
65234;SDS011;51820;48.374;10.930;2023-03-01T05:22:58;24.02;;;9.73;;
65234;SDS011;51820;48.374;10.930;2023-03-01T05:25:32;23.43;;;10.27;;
65234;SDS011;51820;48.374;10.930;2023-03-01T05:28:07;23.55;;;9.80;;
65234;SDS011;51820;48.374;10.930;2023-03-01T05:30:39;21.85;;;10.20;;
65234;SDS011;51820;48.374;10.930;2023-03-01T05:33:08;20.60;;;9.70;;
65234;SDS011;51820;48.374;10.930;2023-03-01T05:35:41;21.73;;;9.85;;
65234;SDS011;51820;48.374;10.930;2023-03-01T05:38:10;23.57;;;10.17;;
65234;SDS011;51820;48.374;10.930;2023-03-01T05:40:40;23.23;;;9.93;;
65234;SDS011;51820;48.374;10.930;2023-03-01T05:43:10;25.90;;;11.15;;
65234;SDS011;51820;48.374;10.930;2023-03-01T05:45:38;23.20;;;9.90;;
65234;SDS011;51820;48.374;10.930;2023-03-01T05:48:07;22.50;;;10.10;;
65234;SDS011;51820;48.374;10.930;2023-03-01T05:50:37;25.83;;;10.10;;
65234;SDS011;51820;48.374;10.930;2023-03-01T05:53:09;22.33;;;9.73;;
65234;SDS011;51820;48.374;10.930;2023-03-01T05:55:39;25.55;;;10.60;;
65234;SDS011;51820;48.374;10.930;2023-03-01T05:58:09;23.17;;;10.18;;
65234;SDS011;51820;48.374;10.930;2023-03-01T06:00:40;22.73;;;10.48;;
65234;SDS011;51820;48.374;10.930;2023-03-01T06:03:09;24.10;;;10.10;;
65234;SDS011;51820;48.374;10.930;2023-03-01T06:05:38;22.83;;;10.48;;
65234;SDS011;51820;48.374;10.930;2023-03-01T06:08:07;23.85;;;10.27;;
65234;SDS011;51820;48.374;10.930;2023-03-01T06:10:37;21.20;;;9.43;;
65234;SDS011;51820;48.374;10.930;2023-03-01T06:13:05;21.95;;;9.80;;
65234;SDS011;51820;48.374;10.930;2023-03-01T06:15:33;26.70;;;10.83;;
65234;SDS011;51820;48.374;10.930;2023-03-01T06:18:02;24.10;;;10.32;;
65234;SDS011;51820;48.374;10.930;2023-03-01T06:20:31;24.20;;;10.13;;
65234;SDS011;51820;48.374;10.930;2023-03-01T06:22:59;21.33;;;10.40;;
65234;SDS011;51820;48.374;10.930;2023-03-01T06:25:28;23.00;;;10.45;;
65234;SDS011;51820;48.374;10.930;2023-03-01T06:27:57;25.07;;;11.17;;
65234;SDS011;51820;48.374;10.930;2023-03-01T06:30:26;25.20;;;10.95;;
65234;SDS011;51820;48.374;10.930;2023-03-01T06:32:55;24.60;;;11.25;;
65234;SDS011;51820;48.374;10.930;2023-03-01T06:35:27;27.77;;;11.13;;
65234;SDS011;51820;48.374;10.930;2023-03-01T06:37:58;26.88;;;11.15;;
65234;SDS011;51820;48.374;10.930;2023-03-01T06:40:28;22.37;;;10.47;;
65234;SDS011;51820;48.374;10.930;2023-03-01T06:42:58;28.85;;;10.90;;
65234;SDS011;51820;48.374;10.930;2023-03-01T06:45:27;24.02;;;10.90;;
65234;SDS011;51820;48.374;10.930;2023-03-01T06:48:02;27.48;;;11.00;;
65234;SDS011;51820;48.374;10.930;2023-03-01T06:50:31;27.15;;;11.35;;
65234;SDS011;51820;48.374;10.930;2023-03-01T06:52:59;27.43;;;10.47;;
65234;SDS011;51820;48.374;10.930;2023-03-01T06:55:28;23.45;;;10.57;;
65234;SDS011;51820;48.374;10.930;2023-03-01T06:57:57;22.05;;;10.40;;
65234;SDS011;51820;48.374;10.930;2023-03-01T07:00:28;27.80;;;10.65;;
65234;SDS011;51820;48.374;10.930;2023-03-01T07:02:58;24.23;;;11.23;;
65234;SDS011;51820;48.374;10.930;2023-03-01T07:05:28;22.00;;;10.77;;
65234;SDS011;51820;48.374;10.930;2023-03-01T07:07:57;22.20;;;10.63;;
65234;SDS011;51820;48.374;10.930;2023-03-01T07:10:25;27.73;;;11.07;;
65234;SDS011;51820;48.374;10.930;2023-03-01T07:12:54;26.30;;;10.70;;
65234;SDS011;51820;48.374;10.930;2023-03-01T07:15:25;29.35;;;11.40;;
65234;SDS011;51820;48.374;10.930;2023-03-01T07:17:54;29.47;;;10.70;;
65234;SDS011;51820;48.374;10.930;2023-03-01T07:20:22;24.08;;;11.13;;
65234;SDS011;51820;48.374;10.930;2023-03-01T07:22:52;25.23;;;11.02;;
65234;SDS011;51820;48.374;10.930;2023-03-01T07:25:20;25.15;;;9.77;;
65234;SDS011;51820;48.374;10.930;2023-03-01T07:27:49;23.88;;;10.80;;
65234;SDS011;51820;48.374;10.930;2023-03-01T07:30:21;26.33;;;9.83;;
65234;SDS011;51820;48.374;10.930;2023-03-01T07:32:54;24.70;;;10.80;;
65234;SDS011;51820;48.374;10.930;2023-03-01T07:35:23;26.48;;;10.27;;
65234;SDS011;51820;48.374;10.930;2023-03-01T07:37:52;24.67;;;10.10;;
65234;SDS011;51820;48.374;10.930;2023-03-01T07:40:21;30.50;;;10.50;;
65234;SDS011;51820;48.374;10.930;2023-03-01T07:42:54;25.80;;;10.03;;
65234;SDS011;51820;48.374;10.930;2023-03-01T07:45:23;24.70;;;10.70;;
65234;SDS011;51820;48.374;10.930;2023-03-01T07:47:51;26.42;;;11.20;;
65234;SDS011;51820;48.374;10.930;2023-03-01T07:50:21;26.30;;;10.48;;
65234;SDS011;51820;48.374;10.930;2023-03-01T07:52:49;24.98;;;11.50;;
65234;SDS011;51820;48.374;10.930;2023-03-01T07:55:18;21.53;;;9.90;;
65234;SDS011;51820;48.374;10.930;2023-03-01T07:57:47;23.92;;;10.23;;
65234;SDS011;51820;48.374;10.930;2023-03-01T08:00:16;26.17;;;10.77;;
65234;SDS011;51820;48.374;10.930;2023-03-01T08:02:45;27.17;;;11.35;;
65234;SDS011;51820;48.374;10.930;2023-03-01T08:08:38;26.43;;;10.77;;
65234;SDS011;51820;48.374;10.930;2023-03-01T08:11:19;24.83;;;9.57;;
65234;SDS011;51820;48.374;10.930;2023-03-01T08:13:48;24.80;;;10.93;;
65234;SDS011;51820;48.374;10.930;2023-03-01T08:16:18;22.88;;;10.98;;
65234;SDS011;51820;48.374;10.930;2023-03-01T08:18:46;24.30;;;10.55;;
65234;SDS011;51820;48.374;10.930;2023-03-01T08:21:16;27.73;;;10.97;;
65234;SDS011;51820;48.374;10.930;2023-03-01T08:23:45;25.92;;;11.25;;
65234;SDS011;51820;48.374;10.930;2023-03-01T08:26:15;25.77;;;9.73;;
65234;SDS011;51820;48.374;10.930;2023-03-01T08:28:45;25.13;;;10.35;;
65234;SDS011;51820;48.374;10.930;2023-03-01T08:31:14;24.75;;;10.40;;
65234;SDS011;51820;48.374;10.930;2023-03-01T08:33:44;23.70;;;10.87;;
65234;SDS011;51820;48.374;10.930;2023-03-01T08:36:18;30.25;;;11.13;;
65234;SDS011;51820;48.374;10.930;2023-03-01T08:38:47;26.38;;;11.63;;
65234;SDS011;51820;48.374;10.930;2023-03-01T08:41:15;24.65;;;9.95;;
65234;SDS011;51820;48.374;10.930;2023-03-01T08:43:44;28.52;;;12.02;;
65234;SDS011;51820;48.374;10.930;2023-03-01T08:46:13;25.57;;;10.03;;
65234;SDS011;51820;48.374;10.930;2023-03-01T08:48:41;23.95;;;10.90;;
65234;SDS011;51820;48.374;10.930;2023-03-01T08:51:10;24.48;;;11.68;;
65234;SDS011;51820;48.374;10.930;2023-03-01T08:53:42;28.02;;;10.98;;
65234;SDS011;51820;48.374;10.930;2023-03-01T08:56:11;24.67;;;10.52;;
65234;SDS011;51820;48.374;10.930;2023-03-01T08:58:40;25.10;;;10.47;;
65234;SDS011;51820;48.374;10.930;2023-03-01T09:01:12;23.13;;;10.05;;
65234;SDS011;51820;48.374;10.930;2023-03-01T09:03:43;26.42;;;11.25;;
65234;SDS011;51820;48.374;10.930;2023-03-01T09:06:11;25.30;;;11.02;;
65234;SDS011;51820;48.374;10.930;2023-03-01T09:08:40;26.95;;;10.73;;
65234;SDS011;51820;48.374;10.930;2023-03-01T09:11:12;24.10;;;11.40;;
65234;SDS011;51820;48.374;10.930;2023-03-01T09:13:42;25.77;;;11.63;;
65234;SDS011;51820;48.374;10.930;2023-03-01T09:16:11;41.13;;;17.85;;
65234;SDS011;51820;48.374;10.930;2023-03-01T09:18:40;29.88;;;12.70;;
65234;SDS011;51820;48.374;10.930;2023-03-01T09:21:09;23.30;;;10.55;;
65234;SDS011;51820;48.374;10.930;2023-03-01T09:23:39;24.10;;;10.70;;
65234;SDS011;51820;48.374;10.930;2023-03-01T09:26:11;26.45;;;11.23;;
65234;SDS011;51820;48.374;10.930;2023-03-01T09:28:41;26.08;;;10.45;;
65234;SDS011;51820;48.374;10.930;2023-03-01T09:31:10;21.58;;;10.30;;
65234;SDS011;51820;48.374;10.930;2023-03-01T09:33:40;25.00;;;11.02;;
65234;SDS011;51820;48.374;10.930;2023-03-01T09:36:11;28.10;;;10.83;;
65234;SDS011;51820;48.374;10.930;2023-03-01T09:38:41;28.30;;;11.63;;
65234;SDS011;51820;48.374;10.930;2023-03-01T09:41:11;23.63;;;10.70;;
65234;SDS011;51820;48.374;10.930;2023-03-01T09:43:53;29.45;;;11.32;;
65234;SDS011;51820;48.374;10.930;2023-03-01T09:46:25;25.13;;;10.43;;
65234;SDS011;51820;48.374;10.930;2023-03-01T09:48:56;25.07;;;10.97;;
65234;SDS011;51820;48.374;10.930;2023-03-01T09:51:29;22.23;;;11.00;;
65234;SDS011;51820;48.374;10.930;2023-03-01T09:54:00;27.17;;;11.15;;
65234;SDS011;51820;48.374;10.930;2023-03-01T09:56:32;26.23;;;11.52;;
65234;SDS011;51820;48.374;10.930;2023-03-01T09:59:07;26.05;;;11.15;;
65234;SDS011;51820;48.374;10.930;2023-03-01T10:01:46;26.03;;;12.03;;
65234;SDS011;51820;48.374;10.930;2023-03-01T10:04:26;25.35;;;11.70;;
65234;SDS011;51820;48.374;10.930;2023-03-01T10:07:07;27.23;;;12.00;;
65234;SDS011;51820;48.374;10.930;2023-03-01T10:09:45;23.00;;;11.10;;
65234;SDS011;51820;48.374;10.930;2023-03-01T10:12:18;23.10;;;11.52;;
65234;SDS011;51820;48.374;10.930;2023-03-01T10:14:51;25.83;;;12.23;;
65234;SDS011;51820;48.374;10.930;2023-03-01T10:17:30;24.02;;;11.32;;
65234;SDS011;51820;48.374;10.930;2023-03-01T10:22:58;24.50;;;11.85;;
65234;SDS011;51820;48.374;10.930;2023-03-01T10:25:31;24.85;;;11.80;;
65234;SDS011;51820;48.374;10.930;2023-03-01T10:28:16;25.10;;;11.87;;
65234;SDS011;51820;48.374;10.930;2023-03-01T10:30:46;23.88;;;11.88;;
65234;SDS011;51820;48.374;10.930;2023-03-01T10:33:16;22.80;;;12.05;;
65234;SDS011;51820;48.374;10.930;2023-03-01T10:35:47;23.63;;;11.25;;
65234;SDS011;51820;48.374;10.930;2023-03-01T10:38:16;23.23;;;11.93;;
65234;SDS011;51820;48.374;10.930;2023-03-01T10:40:52;25.63;;;12.47;;
65234;SDS011;51820;48.374;10.930;2023-03-01T10:43:24;27.45;;;12.07;;
65234;SDS011;51820;48.374;10.930;2023-03-01T10:45:54;25.55;;;12.48;;
65234;SDS011;51820;48.374;10.930;2023-03-01T10:48:23;23.15;;;11.27;;
65234;SDS011;51820;48.374;10.930;2023-03-01T10:51:04;24.02;;;12.18;;
65234;SDS011;51820;48.374;10.930;2023-03-01T10:53:34;24.80;;;12.20;;
65234;SDS011;51820;48.374;10.930;2023-03-01T10:56:06;23.52;;;11.88;;
65234;SDS011;51820;48.374;10.930;2023-03-01T10:58:37;24.92;;;12.40;;
65234;SDS011;51820;48.374;10.930;2023-03-01T11:01:23;23.52;;;12.20;;
65234;SDS011;51820;48.374;10.930;2023-03-01T11:04:07;24.40;;;11.38;;
65234;SDS011;51820;48.374;10.930;2023-03-01T11:06:39;24.70;;;12.90;;
65234;SDS011;51820;48.374;10.930;2023-03-01T11:09:15;25.80;;;12.43;;
65234;SDS011;51820;48.374;10.930;2023-03-01T11:11:46;24.90;;;12.68;;
65234;SDS011;51820;48.374;10.930;2023-03-01T11:14:21;26.58;;;11.82;;
65234;SDS011;51820;48.374;10.930;2023-03-01T11:17:00;22.38;;;11.63;;
65234;SDS011;51820;48.374;10.930;2023-03-01T11:19:30;27.90;;;11.83;;
65234;SDS011;51820;48.374;10.930;2023-03-01T11:22:00;26.70;;;12.30;;
65234;SDS011;51820;48.374;10.930;2023-03-01T11:24:33;22.15;;;12.23;;
65234;SDS011;51820;48.374;10.930;2023-03-01T11:27:12;22.92;;;12.15;;
65234;SDS011;51820;48.374;10.930;2023-03-01T11:29:46;22.13;;;11.65;;
65234;SDS011;51820;48.374;10.930;2023-03-01T11:32:18;23.47;;;11.87;;
65234;SDS011;51820;48.374;10.930;2023-03-01T11:34:52;22.13;;;11.77;;
65234;SDS011;51820;48.374;10.930;2023-03-01T11:37:28;29.55;;;12.68;;
65234;SDS011;51820;48.374;10.930;2023-03-01T11:40:09;27.38;;;11.57;;
65234;SDS011;51820;48.374;10.930;2023-03-01T11:42:43;26.40;;;12.48;;
65234;SDS011;51820;48.374;10.930;2023-03-01T11:45:21;23.63;;;11.67;;
65234;SDS011;51820;48.374;10.930;2023-03-01T11:47:55;28.23;;;11.90;;
65234;SDS011;51820;48.374;10.930;2023-03-01T11:50:36;21.95;;;11.38;;
65234;SDS011;51820;48.374;10.930;2023-03-01T11:53:22;24.48;;;12.65;;
65234;SDS011;51820;48.374;10.930;2023-03-01T11:56:03;21.23;;;11.07;;
65234;SDS011;51820;48.374;10.930;2023-03-01T11:58:48;21.93;;;11.90;;
65234;SDS011;51820;48.374;10.930;2023-03-01T12:01:39;23.73;;;12.15;;
65234;SDS011;51820;48.374;10.930;2023-03-01T12:04:23;26.10;;;12.50;;
65234;SDS011;51820;48.374;10.930;2023-03-01T12:07:15;24.30;;;11.75;;
65234;SDS011;51820;48.374;10.930;2023-03-01T12:09:55;23.90;;;11.65;;
65234;SDS011;51820;48.374;10.930;2023-03-01T12:12:34;18.70;;;10.13;;
65234;SDS011;51820;48.374;10.930;2023-03-01T12:15:20;20.27;;;11.52;;
65234;SDS011;51820;48.374;10.930;2023-03-01T12:18:07;25.90;;;12.10;;
65234;SDS011;51820;48.374;10.930;2023-03-01T12:20:56;20.45;;;11.40;;
65234;SDS011;51820;48.374;10.930;2023-03-01T12:23:44;27.17;;;11.27;;
65234;SDS011;51820;48.374;10.930;2023-03-01T12:26:30;22.57;;;11.57;;
65234;SDS011;51820;48.374;10.930;2023-03-01T12:29:08;17.70;;;10.77;;
65234;SDS011;51820;48.374;10.930;2023-03-01T12:32:00;19.92;;;11.75;;
65234;SDS011;51820;48.374;10.930;2023-03-01T12:34:54;20.20;;;11.23;;
65234;SDS011;51820;48.374;10.930;2023-03-01T12:37:35;20.17;;;11.98;;
65234;SDS011;51820;48.374;10.930;2023-03-01T12:40:20;23.13;;;12.13;;
65234;SDS011;51820;48.374;10.930;2023-03-01T12:43:02;25.27;;;12.45;;
65234;SDS011;51820;48.374;10.930;2023-03-01T12:45:44;21.88;;;12.70;;
65234;SDS011;51820;48.374;10.930;2023-03-01T12:48:24;22.85;;;11.95;;
65234;SDS011;51820;48.374;10.930;2023-03-01T12:51:06;23.05;;;12.73;;
65234;SDS011;51820;48.374;10.930;2023-03-01T12:53:39;22.77;;;12.27;;
65234;SDS011;51820;48.374;10.930;2023-03-01T12:56:11;20.45;;;12.35;;
65234;SDS011;51820;48.374;10.930;2023-03-01T12:58:46;19.88;;;12.43;;
65234;SDS011;51820;48.374;10.930;2023-03-01T13:01:27;20.58;;;11.95;;
65234;SDS011;51820;48.374;10.930;2023-03-01T13:04:19;18.73;;;10.88;;
65234;SDS011;51820;48.374;10.930;2023-03-01T13:06:58;21.03;;;12.03;;
65234;SDS011;51820;48.374;10.930;2023-03-01T13:09:37;21.10;;;12.13;;
65234;SDS011;51820;48.374;10.930;2023-03-01T13:15:27;21.95;;;12.10;;
65234;SDS011;51820;48.374;10.930;2023-03-01T13:17:58;20.83;;;11.88;;
65234;SDS011;51820;48.374;10.930;2023-03-01T13:20:30;22.10;;;11.80;;
65234;SDS011;51820;48.374;10.930;2023-03-01T13:23:03;21.25;;;11.85;;
65234;SDS011;51820;48.374;10.930;2023-03-01T13:28:49;18.88;;;10.70;;
65234;SDS011;51820;48.374;10.930;2023-03-01T13:37:21;17.67;;;10.20;;
65234;SDS011;51820;48.374;10.930;2023-03-01T13:40:00;22.40;;;10.85;;
65234;SDS011;51820;48.374;10.930;2023-03-01T13:42:39;21.90;;;10.60;;
65234;SDS011;51820;48.374;10.930;2023-03-01T13:45:17;20.75;;;10.80;;
65234;SDS011;51820;48.374;10.930;2023-03-01T13:47:53;21.50;;;10.70;;
65234;SDS011;51820;48.374;10.930;2023-03-01T13:50:27;22.45;;;10.98;;
65234;SDS011;51820;48.374;10.930;2023-03-01T13:52:59;20.35;;;11.05;;
65234;SDS011;51820;48.374;10.930;2023-03-01T13:55:34;19.05;;;10.38;;
65234;SDS011;51820;48.374;10.930;2023-03-01T13:58:14;20.98;;;10.15;;
65234;SDS011;51820;48.374;10.930;2023-03-01T14:00:46;18.30;;;10.43;;
65234;SDS011;51820;48.374;10.930;2023-03-01T14:03:15;21.10;;;11.02;;
65234;SDS011;51820;48.374;10.930;2023-03-01T14:05:57;22.23;;;10.75;;
65234;SDS011;51820;48.374;10.930;2023-03-01T14:08:44;21.20;;;10.10;;
65234;SDS011;51820;48.374;10.930;2023-03-01T14:14:20;19.13;;;10.90;;
65234;SDS011;51820;48.374;10.930;2023-03-01T14:17:00;19.45;;;10.68;;
65234;SDS011;51820;48.374;10.930;2023-03-01T14:19:40;19.85;;;10.27;;
65234;SDS011;51820;48.374;10.930;2023-03-01T14:22:13;21.67;;;10.10;;
65234;SDS011;51820;48.374;10.930;2023-03-01T14:24:49;19.77;;;10.75;;
65234;SDS011;51820;48.374;10.930;2023-03-01T14:27:20;20.73;;;10.30;;
65234;SDS011;51820;48.374;10.930;2023-03-01T14:29:55;21.98;;;11.30;;
65234;SDS011;51820;48.374;10.930;2023-03-01T14:32:26;21.27;;;10.05;;
65234;SDS011;51820;48.374;10.930;2023-03-01T14:34:57;19.80;;;10.30;;
65234;SDS011;51820;48.374;10.930;2023-03-01T14:37:28;19.65;;;10.65;;
65234;SDS011;51820;48.374;10.930;2023-03-01T14:40:01;21.33;;;11.00;;
65234;SDS011;51820;48.374;10.930;2023-03-01T14:42:34;21.55;;;11.15;;
65234;SDS011;51820;48.374;10.930;2023-03-01T14:45:04;21.70;;;11.13;;
65234;SDS011;51820;48.374;10.930;2023-03-01T14:47:36;23.80;;;11.15;;
65234;SDS011;51820;48.374;10.930;2023-03-01T14:50:14;20.70;;;10.10;;
65234;SDS011;51820;48.374;10.930;2023-03-01T14:52:48;21.70;;;10.47;;
65234;SDS011;51820;48.374;10.930;2023-03-01T14:55:21;21.58;;;10.02;;
65234;SDS011;51820;48.374;10.930;2023-03-01T14:57:56;23.05;;;10.57;;
65234;SDS011;51820;48.374;10.930;2023-03-01T15:00:29;21.40;;;10.00;;
65234;SDS011;51820;48.374;10.930;2023-03-01T15:03:01;20.20;;;10.38;;
65234;SDS011;51820;48.374;10.930;2023-03-01T15:05:40;19.67;;;10.27;;